sensor_id;sensor_type;location;lat;lon;timestamp;P1;durP1;ratioP1;P2;durP2;ratioP2
76848;SDS011;65814;51.134;16.980;2023-01-30T00:01:00;21.40;;;10.80;;
76848;SDS011;65814;51.134;16.980;2023-01-30T00:03:30;24.70;;;12.30;;
76848;SDS011;65814;51.134;16.980;2023-01-30T00:05:58;19.40;;;13.20;;
76848;SDS011;65814;51.134;16.980;2023-01-30T00:08:26;18.60;;;11.10;;
76848;SDS011;65814;51.134;16.980;2023-01-30T00:10:53;20.30;;;11.10;;
76848;SDS011;65814;51.134;16.980;2023-01-30T00:13:21;24.30;;;12.40;;
76848;SDS011;65814;51.134;16.980;2023-01-30T00:15:49;23.20;;;12.90;;
76848;SDS011;65814;51.134;16.980;2023-01-30T00:18:17;23.10;;;12.40;;
76848;SDS011;65814;51.134;16.980;2023-01-30T00:20:45;21.90;;;12.60;;
76848;SDS011;65814;51.134;16.980;2023-01-30T00:23:12;20.60;;;12.00;;
76848;SDS011;65814;51.134;16.980;2023-01-30T00:25:43;21.90;;;12.10;;
76848;SDS011;65814;51.134;16.980;2023-01-30T00:28:12;20.80;;;11.90;;
76848;SDS011;65814;51.134;16.980;2023-01-30T00:30:40;21.50;;;11.60;;
76848;SDS011;65814;51.134;16.980;2023-01-30T00:33:08;19.50;;;9.90;;
76848;SDS011;65814;51.134;16.980;2023-01-30T00:35:37;20.00;;;10.80;;
76848;SDS011;65814;51.134;16.980;2023-01-30T00:38:12;20.50;;;13.10;;
76848;SDS011;65814;51.134;16.980;2023-01-30T00:40:40;20.60;;;10.60;;
76848;SDS011;65814;51.134;16.980;2023-01-30T00:43:11;19.20;;;10.80;;
76848;SDS011;65814;51.134;16.980;2023-01-30T00:45:59;20.80;;;10.50;;
76848;SDS011;65814;51.134;16.980;2023-01-30T00:48:46;21.20;;;10.20;;
76848;SDS011;65814;51.134;16.980;2023-01-30T00:51:14;20.10;;;10.20;;
76848;SDS011;65814;51.134;16.980;2023-01-30T00:53:42;20.70;;;11.70;;
76848;SDS011;65814;51.134;16.980;2023-01-30T00:56:10;17.80;;;9.80;;
76848;SDS011;65814;51.134;16.980;2023-01-30T00:58:38;19.30;;;10.90;;
76848;SDS011;65814;51.134;16.980;2023-01-30T01:01:06;17.60;;;9.60;;
76848;SDS011;65814;51.134;16.980;2023-01-30T01:03:33;16.90;;;10.20;;
76848;SDS011;65814;51.134;16.980;2023-01-30T01:06:01;17.80;;;9.50;;
76848;SDS011;65814;51.134;16.980;2023-01-30T01:08:29;17.70;;;9.70;;
76848;SDS011;65814;51.134;16.980;2023-01-30T01:10:57;18.50;;;9.50;;
76848;SDS011;65814;51.134;16.980;2023-01-30T01:13:25;17.30;;;9.60;;
76848;SDS011;65814;51.134;16.980;2023-01-30T01:15:53;20.50;;;9.70;;
76848;SDS011;65814;51.134;16.980;2023-01-30T01:18:20;17.00;;;9.20;;
76848;SDS011;65814;51.134;16.980;2023-01-30T01:20:49;16.60;;;10.50;;
76848;SDS011;65814;51.134;16.980;2023-01-30T01:23:16;20.50;;;10.70;;
76848;SDS011;65814;51.134;16.980;2023-01-30T01:25:44;19.30;;;11.60;;
76848;SDS011;65814;51.134;16.980;2023-01-30T01:28:12;15.70;;;9.00;;
76848;SDS011;65814;51.134;16.980;2023-01-30T01:30:40;17.50;;;9.50;;
76848;SDS011;65814;51.134;16.980;2023-01-30T01:33:08;17.40;;;9.80;;
76848;SDS011;65814;51.134;16.980;2023-01-30T01:35:39;17.10;;;9.80;;
76848;SDS011;65814;51.134;16.980;2023-01-30T01:38:07;17.80;;;8.70;;
76848;SDS011;65814;51.134;16.980;2023-01-30T01:40:35;15.50;;;9.00;;
76848;SDS011;65814;51.134;16.980;2023-01-30T01:43:22;17.10;;;9.60;;
76848;SDS011;65814;51.134;16.980;2023-01-30T01:45:52;20.80;;;10.20;;
76848;SDS011;65814;51.134;16.980;2023-01-30T01:48:31;15.50;;;9.50;;
76848;SDS011;65814;51.134;16.980;2023-01-30T01:51:07;18.60;;;9.30;;
76848;SDS011;65814;51.134;16.980;2023-01-30T01:53:39;16.20;;;10.30;;
76848;SDS011;65814;51.134;16.980;2023-01-30T01:56:10;18.80;;;9.50;;
76848;SDS011;65814;51.134;16.980;2023-01-30T01:58:45;18.40;;;10.00;;
76848;SDS011;65814;51.134;16.980;2023-01-30T02:01:17;16.60;;;9.90;;
76848;SDS011;65814;51.134;16.980;2023-01-30T02:03:49;19.90;;;10.70;;
76848;SDS011;65814;51.134;16.980;2023-01-30T02:06:20;17.10;;;9.10;;
76848;SDS011;65814;51.134;16.980;2023-01-30T02:08:49;21.80;;;10.30;;
76848;SDS011;65814;51.134;16.980;2023-01-30T02:11:28;21.00;;;11.20;;
76848;SDS011;65814;51.134;16.980;2023-01-30T02:13:58;19.30;;;10.60;;
76848;SDS011;65814;51.134;16.980;2023-01-30T02:16:27;18.70;;;10.40;;
76848;SDS011;65814;51.134;16.980;2023-01-30T02:18:55;17.30;;;10.20;;
76848;SDS011;65814;51.134;16.980;2023-01-30T02:29:43;21.30;;;12.70;;
76848;SDS011;65814;51.134;16.980;2023-01-30T02:32:15;24.00;;;12.50;;
76848;SDS011;65814;51.134;16.980;2023-01-30T02:37:23;17.70;;;10.50;;
76848;SDS011;65814;51.134;16.980;2023-01-30T02:43:10;17.70;;;10.40;;
76848;SDS011;65814;51.134;16.980;2023-01-30T02:48:20;20.00;;;11.70;;
76848;SDS011;65814;51.134;16.980;2023-01-30T02:51:02;19.20;;;10.60;;
76848;SDS011;65814;51.134;16.980;2023-01-30T02:53:57;16.90;;;10.30;;
76848;SDS011;65814;51.134;16.980;2023-01-30T02:56:25;17.00;;;11.60;;
76848;SDS011;65814;51.134;16.980;2023-01-30T02:58:55;19.00;;;10.90;;
76848;SDS011;65814;51.134;16.980;2023-01-30T03:10:38;17.80;;;10.50;;
76848;SDS011;65814;51.134;16.980;2023-01-30T03:13:15;19.40;;;9.60;;
76848;SDS011;65814;51.134;16.980;2023-01-30T03:15:59;19.50;;;10.20;;
76848;SDS011;65814;51.134;16.980;2023-01-30T03:18:33;16.00;;;8.90;;
76848;SDS011;65814;51.134;16.980;2023-01-30T03:21:04;15.90;;;9.80;;
76848;SDS011;65814;51.134;16.980;2023-01-30T03:23:32;15.70;;;9.90;;
76848;SDS011;65814;51.134;16.980;2023-01-30T03:26:01;19.50;;;11.20;;
76848;SDS011;65814;51.134;16.980;2023-01-30T03:28:31;17.80;;;10.10;;
76848;SDS011;65814;51.134;16.980;2023-01-30T03:30:59;16.10;;;9.00;;
76848;SDS011;65814;51.134;16.980;2023-01-30T03:33:27;16.40;;;9.60;;
76848;SDS011;65814;51.134;16.980;2023-01-30T03:35:55;16.10;;;9.20;;
76848;SDS011;65814;51.134;16.980;2023-01-30T03:38:23;16.90;;;9.40;;
76848;SDS011;65814;51.134;16.980;2023-01-30T03:40:51;17.30;;;10.20;;
76848;SDS011;65814;51.134;16.980;2023-01-30T03:43:19;15.60;;;10.30;;
76848;SDS011;65814;51.134;16.980;2023-01-30T03:45:47;15.90;;;9.90;;
76848;SDS011;65814;51.134;16.980;2023-01-30T03:48:14;14.00;;;8.40;;
76848;SDS011;65814;51.134;16.980;2023-01-30T03:50:42;18.00;;;9.60;;
76848;SDS011;65814;51.134;16.980;2023-01-30T03:53:10;15.90;;;9.80;;
76848;SDS011;65814;51.134;16.980;2023-01-30T03:55:38;15.10;;;10.00;;
76848;SDS011;65814;51.134;16.980;2023-01-30T03:58:06;16.40;;;9.40;;
76848;SDS011;65814;51.134;16.980;2023-01-30T04:00:34;16.80;;;9.70;;
76848;SDS011;65814;51.134;16.980;2023-01-30T04:03:02;15.90;;;9.10;;
76848;SDS011;65814;51.134;16.980;2023-01-30T04:05:30;16.70;;;10.10;;
76848;SDS011;65814;51.134;16.980;2023-01-30T04:07:58;17.00;;;10.00;;
76848;SDS011;65814;51.134;16.980;2023-01-30T04:10:26;17.70;;;10.10;;
76848;SDS011;65814;51.134;16.980;2023-01-30T04:12:54;13.30;;;8.80;;
76848;SDS011;65814;51.134;16.980;2023-01-30T04:15:22;15.10;;;8.50;;
76848;SDS011;65814;51.134;16.980;2023-01-30T04:17:50;16.30;;;9.60;;
76848;SDS011;65814;51.134;16.980;2023-01-30T04:20:17;14.50;;;8.40;;
76848;SDS011;65814;51.134;16.980;2023-01-30T04:22:46;15.20;;;9.90;;
76848;SDS011;65814;51.134;16.980;2023-01-30T04:25:14;14.60;;;9.00;;
76848;SDS011;65814;51.134;16.980;2023-01-30T04:27:43;15.10;;;9.00;;
76848;SDS011;65814;51.134;16.980;2023-01-30T04:30:11;15.60;;;8.60;;
76848;SDS011;65814;51.134;16.980;2023-01-30T04:32:39;16.90;;;9.30;;
76848;SDS011;65814;51.134;16.980;2023-01-30T04:35:07;18.30;;;10.90;;
76848;SDS011;65814;51.134;16.980;2023-01-30T04:37:35;16.90;;;10.90;;
76848;SDS011;65814;51.134;16.980;2023-01-30T04:40:03;16.60;;;10.20;;
76848;SDS011;65814;51.134;16.980;2023-01-30T04:42:31;16.70;;;9.30;;
76848;SDS011;65814;51.134;16.980;2023-01-30T04:44:59;16.30;;;9.40;;
76848;SDS011;65814;51.134;16.980;2023-01-30T04:47:27;17.80;;;9.70;;
76848;SDS011;65814;51.134;16.980;2023-01-30T04:49:55;17.40;;;9.40;;
76848;SDS011;65814;51.134;16.980;2023-01-30T04:52:23;17.40;;;9.30;;
76848;SDS011;65814;51.134;16.980;2023-01-30T04:54:51;17.10;;;9.40;;
76848;SDS011;65814;51.134;16.980;2023-01-30T04:57:19;16.10;;;9.00;;
76848;SDS011;65814;51.134;16.980;2023-01-30T04:59:46;16.70;;;10.00;;
76848;SDS011;65814;51.134;16.980;2023-01-30T05:02:14;16.60;;;9.80;;
76848;SDS011;65814;51.134;16.980;2023-01-30T05:04:42;15.60;;;9.00;;
76848;SDS011;65814;51.134;16.980;2023-01-30T05:07:10;14.30;;;8.70;;
76848;SDS011;65814;51.134;16.980;2023-01-30T05:09:38;17.10;;;9.00;;
76848;SDS011;65814;51.134;16.980;2023-01-30T05:12:06;16.00;;;9.60;;
76848;SDS011;65814;51.134;16.980;2023-01-30T05:14:34;14.30;;;9.00;;
76848;SDS011;65814;51.134;16.980;2023-01-30T05:17:02;15.30;;;8.50;;
76848;SDS011;65814;51.134;16.980;2023-01-30T05:19:30;16.50;;;8.60;;
76848;SDS011;65814;51.134;16.980;2023-01-30T05:21:57;16.40;;;9.60;;
76848;SDS011;65814;51.134;16.980;2023-01-30T05:24:25;13.20;;;9.10;;
76848;SDS011;65814;51.134;16.980;2023-01-30T05:26:53;14.40;;;8.50;;
76848;SDS011;65814;51.134;16.980;2023-01-30T05:29:21;14.30;;;8.50;;
76848;SDS011;65814;51.134;16.980;2023-01-30T05:31:49;18.50;;;10.20;;
76848;SDS011;65814;51.134;16.980;2023-01-30T05:34:18;19.30;;;11.20;;
76848;SDS011;65814;51.134;16.980;2023-01-30T05:36:46;17.80;;;10.80;;
76848;SDS011;65814;51.134;16.980;2023-01-30T05:39:13;15.00;;;9.70;;
76848;SDS011;65814;51.134;16.980;2023-01-30T05:41:42;17.30;;;9.90;;
76848;SDS011;65814;51.134;16.980;2023-01-30T05:44:10;14.20;;;10.00;;
76848;SDS011;65814;51.134;16.980;2023-01-30T05:46:39;15.40;;;8.90;;
76848;SDS011;65814;51.134;16.980;2023-01-30T05:49:07;15.00;;;9.40;;
76848;SDS011;65814;51.134;16.980;2023-01-30T05:51:35;18.80;;;9.10;;
76848;SDS011;65814;51.134;16.980;2023-01-30T05:54:02;18.40;;;10.20;;
76848;SDS011;65814;51.134;16.980;2023-01-30T05:56:30;16.70;;;9.70;;
76848;SDS011;65814;51.134;16.980;2023-01-30T05:59:00;14.70;;;8.90;;
76848;SDS011;65814;51.134;16.980;2023-01-30T06:01:28;19.50;;;10.20;;
76848;SDS011;65814;51.134;16.980;2023-01-30T06:03:56;17.10;;;9.60;;
76848;SDS011;65814;51.134;16.980;2023-01-30T06:06:25;19.30;;;10.10;;
76848;SDS011;65814;51.134;16.980;2023-01-30T06:08:54;16.90;;;10.50;;
76848;SDS011;65814;51.134;16.980;2023-01-30T06:11:22;18.00;;;9.80;;
76848;SDS011;65814;51.134;16.980;2023-01-30T06:13:51;17.70;;;9.30;;
76848;SDS011;65814;51.134;16.980;2023-01-30T06:16:19;16.90;;;8.70;;
76848;SDS011;65814;51.134;16.980;2023-01-30T06:18:47;15.80;;;9.40;;
76848;SDS011;65814;51.134;16.980;2023-01-30T06:21:15;15.60;;;8.80;;
76848;SDS011;65814;51.134;16.980;2023-01-30T06:23:43;17.60;;;9.90;;
76848;SDS011;65814;51.134;16.980;2023-01-30T06:26:12;17.50;;;9.90;;
76848;SDS011;65814;51.134;16.980;2023-01-30T06:28:40;20.10;;;10.20;;
76848;SDS011;65814;51.134;16.980;2023-01-30T06:31:09;19.90;;;11.60;;
76848;SDS011;65814;51.134;16.980;2023-01-30T06:33:37;18.40;;;9.40;;
76848;SDS011;65814;51.134;16.980;2023-01-30T06:36:05;13.70;;;9.10;;
76848;SDS011;65814;51.134;16.980;2023-01-30T06:38:34;14.00;;;8.30;;
76848;SDS011;65814;51.134;16.980;2023-01-30T06:41:02;14.20;;;9.00;;
76848;SDS011;65814;51.134;16.980;2023-01-30T06:43:30;14.80;;;8.70;;
76848;SDS011;65814;51.134;16.980;2023-01-30T06:45:58;13.60;;;8.60;;
76848;SDS011;65814;51.134;16.980;2023-01-30T06:48:26;14.60;;;8.60;;
76848;SDS011;65814;51.134;16.980;2023-01-30T06:50:54;17.20;;;9.10;;
76848;SDS011;65814;51.134;16.980;2023-01-30T06:53:22;14.60;;;9.40;;
76848;SDS011;65814;51.134;16.980;2023-01-30T06:56:00;15.90;;;9.10;;
76848;SDS011;65814;51.134;16.980;2023-01-30T06:58:28;18.20;;;9.80;;
76848;SDS011;65814;51.134;16.980;2023-01-30T07:00:56;16.20;;;10.10;;
76848;SDS011;65814;51.134;16.980;2023-01-30T07:03:24;18.60;;;9.90;;
76848;SDS011;65814;51.134;16.980;2023-01-30T07:05:51;14.70;;;9.70;;
76848;SDS011;65814;51.134;16.980;2023-01-30T07:08:19;20.00;;;10.60;;
76848;SDS011;65814;51.134;16.980;2023-01-30T07:10:50;21.10;;;10.90;;
76848;SDS011;65814;51.134;16.980;2023-01-30T07:13:18;17.60;;;10.30;;
76848;SDS011;65814;51.134;16.980;2023-01-30T07:15:46;18.00;;;10.90;;
76848;SDS011;65814;51.134;16.980;2023-01-30T07:18:14;17.20;;;11.40;;
76848;SDS011;65814;51.134;16.980;2023-01-30T07:20:45;18.10;;;11.00;;
76848;SDS011;65814;51.134;16.980;2023-01-30T07:23:14;18.00;;;9.90;;
76848;SDS011;65814;51.134;16.980;2023-01-30T07:25:42;17.70;;;9.60;;
76848;SDS011;65814;51.134;16.980;2023-01-30T07:28:10;18.00;;;9.60;;
76848;SDS011;65814;51.134;16.980;2023-01-30T07:30:38;16.60;;;9.20;;
76848;SDS011;65814;51.134;16.980;2023-01-30T07:33:06;18.60;;;10.30;;
76848;SDS011;65814;51.134;16.980;2023-01-30T07:35:34;15.90;;;9.80;;
76848;SDS011;65814;51.134;16.980;2023-01-30T07:38:03;19.10;;;11.10;;
76848;SDS011;65814;51.134;16.980;2023-01-30T07:40:32;17.10;;;10.10;;
76848;SDS011;65814;51.134;16.980;2023-01-30T07:43:01;23.40;;;12.90;;
76848;SDS011;65814;51.134;16.980;2023-01-30T07:45:38;24.80;;;13.10;;
76848;SDS011;65814;51.134;16.980;2023-01-30T07:48:14;19.60;;;11.30;;
76848;SDS011;65814;51.134;16.980;2023-01-30T07:50:43;19.60;;;10.10;;
76848;SDS011;65814;51.134;16.980;2023-01-30T07:53:15;17.70;;;10.70;;
76848;SDS011;65814;51.134;16.980;2023-01-30T07:55:45;19.10;;;10.70;;
76848;SDS011;65814;51.134;16.980;2023-01-30T07:58:13;18.70;;;10.50;;
76848;SDS011;65814;51.134;16.980;2023-01-30T08:00:42;18.30;;;11.20;;
76848;SDS011;65814;51.134;16.980;2023-01-30T08:03:14;17.10;;;10.30;;
76848;SDS011;65814;51.134;16.980;2023-01-30T08:05:46;18.70;;;11.20;;
76848;SDS011;65814;51.134;16.980;2023-01-30T08:08:14;17.70;;;10.70;;
76848;SDS011;65814;51.134;16.980;2023-01-30T08:10:42;21.60;;;11.70;;
76848;SDS011;65814;51.134;16.980;2023-01-30T08:13:10;21.20;;;11.90;;
76848;SDS011;65814;51.134;16.980;2023-01-30T08:15:38;18.90;;;10.70;;
76848;SDS011;65814;51.134;16.980;2023-01-30T08:18:06;19.60;;;11.00;;
76848;SDS011;65814;51.134;16.980;2023-01-30T08:20:34;17.30;;;10.20;;
76848;SDS011;65814;51.134;16.980;2023-01-30T08:23:03;18.70;;;10.00;;
76848;SDS011;65814;51.134;16.980;2023-01-30T08:25:31;20.30;;;10.90;;
76848;SDS011;65814;51.134;16.980;2023-01-30T08:27:58;19.70;;;11.10;;
76848;SDS011;65814;51.134;16.980;2023-01-30T08:30:27;17.10;;;10.20;;
76848;SDS011;65814;51.134;16.980;2023-01-30T08:32:57;18.00;;;10.20;;
76848;SDS011;65814;51.134;16.980;2023-01-30T08:35:25;18.60;;;9.80;;
76848;SDS011;65814;51.134;16.980;2023-01-30T08:37:53;17.10;;;9.80;;
76848;SDS011;65814;51.134;16.980;2023-01-30T08:40:21;15.80;;;10.00;;
76848;SDS011;65814;51.134;16.980;2023-01-30T08:42:49;18.90;;;11.40;;
76848;SDS011;65814;51.134;16.980;2023-01-30T08:45:17;20.90;;;11.00;;
76848;SDS011;65814;51.134;16.980;2023-01-30T08:47:44;18.40;;;11.50;;
76848;SDS011;65814;51.134;16.980;2023-01-30T08:50:12;17.30;;;9.60;;
76848;SDS011;65814;51.134;16.980;2023-01-30T08:52:40;15.60;;;9.10;;
76848;SDS011;65814;51.134;16.980;2023-01-30T08:55:08;14.60;;;9.50;;
76848;SDS011;65814;51.134;16.980;2023-01-30T08:57:36;16.70;;;9.60;;
76848;SDS011;65814;51.134;16.980;2023-01-30T09:00:04;19.60;;;9.70;;
76848;SDS011;65814;51.134;16.980;2023-01-30T09:02:33;16.30;;;9.30;;
76848;SDS011;65814;51.134;16.980;2023-01-30T09:05:02;16.50;;;9.20;;
76848;SDS011;65814;51.134;16.980;2023-01-30T09:07:31;16.50;;;9.20;;
76848;SDS011;65814;51.134;16.980;2023-01-30T09:09:59;22.20;;;11.20;;
76848;SDS011;65814;51.134;16.980;2023-01-30T09:12:27;20.60;;;11.60;;
76848;SDS011;65814;51.134;16.980;2023-01-30T09:14:55;17.10;;;10.20;;
76848;SDS011;65814;51.134;16.980;2023-01-30T09:17:25;15.50;;;9.00;;
76848;SDS011;65814;51.134;16.980;2023-01-30T09:19:52;16.10;;;8.90;;
76848;SDS011;65814;51.134;16.980;2023-01-30T09:22:20;16.10;;;9.10;;
76848;SDS011;65814;51.134;16.980;2023-01-30T09:24:48;13.40;;;8.40;;
76848;SDS011;65814;51.134;16.980;2023-01-30T09:27:16;17.60;;;8.90;;
76848;SDS011;65814;51.134;16.980;2023-01-30T09:29:44;14.30;;;8.60;;
76848;SDS011;65814;51.134;16.980;2023-01-30T09:32:12;12.60;;;7.60;;
76848;SDS011;65814;51.134;16.980;2023-01-30T09:34:40;16.10;;;8.90;;
76848;SDS011;65814;51.134;16.980;2023-01-30T09:37:07;14.60;;;8.40;;
76848;SDS011;65814;51.134;16.980;2023-01-30T09:39:35;13.20;;;7.80;;
76848;SDS011;65814;51.134;16.980;2023-01-30T09:47:12;14.10;;;8.30;;
76848;SDS011;65814;51.134;16.980;2023-01-30T09:55:32;12.70;;;7.30;;
76848;SDS011;65814;51.134;16.980;2023-01-30T09:58:04;15.80;;;8.80;;
76848;SDS011;65814;51.134;16.980;2023-01-30T10:00:34;16.90;;;9.00;;
76848;SDS011;65814;51.134;16.980;2023-01-30T10:14:18;12.20;;;7.20;;
76848;SDS011;65814;51.134;16.980;2023-01-30T10:17:38;13.10;;;7.80;;
76848;SDS011;65814;51.134;16.980;2023-01-30T10:25:53;13.10;;;6.90;;
76848;SDS011;65814;51.134;16.980;2023-01-30T10:29:25;11.20;;;7.30;;
76848;SDS011;65814;51.134;16.980;2023-01-30T10:31:45;12.40;;;6.60;;
76848;SDS011;65814;51.134;16.980;2023-01-30T10:34:26;14.60;;;7.50;;
76848;SDS011;65814;51.134;16.980;2023-01-30T10:37:01;12.90;;;6.90;;
76848;SDS011;65814;51.134;16.980;2023-01-30T10:39:40;13.40;;;6.80;;
76848;SDS011;65814;51.134;16.980;2023-01-30T10:42:30;13.50;;;9.00;;
76848;SDS011;65814;51.134;16.980;2023-01-30T10:45:09;11.70;;;8.30;;
76848;SDS011;65814;51.134;16.980;2023-01-30T10:47:52;12.00;;;7.60;;
76848;SDS011;65814;51.134;16.980;2023-01-30T10:50:38;14.50;;;7.60;;
76848;SDS011;65814;51.134;16.980;2023-01-30T10:55:54;9.70;;;5.70;;
76848;SDS011;65814;51.134;16.980;2023-01-30T10:58:33;11.80;;;6.50;;
76848;SDS011;65814;51.134;16.980;2023-01-30T11:01:06;14.90;;;8.20;;
76848;SDS011;65814;51.134;16.980;2023-01-30T11:03:43;12.20;;;7.40;;
76848;SDS011;65814;51.134;16.980;2023-01-30T11:06:14;11.80;;;6.30;;
76848;SDS011;65814;51.134;16.980;2023-01-30T11:08:43;9.80;;;5.60;;
76848;SDS011;65814;51.134;16.980;2023-01-30T11:11:25;9.60;;;5.70;;
76848;SDS011;65814;51.134;16.980;2023-01-30T11:14:03;8.70;;;6.00;;
76848;SDS011;65814;51.134;16.980;2023-01-30T11:19:23;11.60;;;5.60;;
76848;SDS011;65814;51.134;16.980;2023-01-30T11:21:54;11.80;;;6.30;;
76848;SDS011;65814;51.134;16.980;2023-01-30T11:24:30;9.20;;;6.20;;
76848;SDS011;65814;51.134;16.980;2023-01-30T11:29:37;9.10;;;6.00;;
76848;SDS011;65814;51.134;16.980;2023-01-30T11:32:22;9.80;;;5.90;;
76848;SDS011;65814;51.134;16.980;2023-01-30T11:37:34;9.90;;;5.10;;
76848;SDS011;65814;51.134;16.980;2023-01-30T11:40:06;9.30;;;5.70;;
76848;SDS011;65814;51.134;16.980;2023-01-30T11:43:03;14.00;;;7.10;;
76848;SDS011;65814;51.134;16.980;2023-01-30T11:45:33;9.40;;;6.20;;
76848;SDS011;65814;51.134;16.980;2023-01-30T11:48:04;8.20;;;5.60;;
76848;SDS011;65814;51.134;16.980;2023-01-30T11:50:58;10.00;;;6.00;;
76848;SDS011;65814;51.134;16.980;2023-01-30T11:53:38;10.50;;;6.90;;
76848;SDS011;65814;51.134;16.980;2023-01-30T11:56:11;10.60;;;6.30;;
76848;SDS011;65814;51.134;16.980;2023-01-30T11:58:40;11.20;;;5.40;;
76848;SDS011;65814;51.134;16.980;2023-01-30T12:01:12;12.70;;;6.60;;
76848;SDS011;65814;51.134;16.980;2023-01-30T12:03:46;11.40;;;5.80;;
76848;SDS011;65814;51.134;16.980;2023-01-30T12:06:22;9.70;;;5.50;;
76848;SDS011;65814;51.134;16.980;2023-01-30T12:08:52;7.40;;;4.30;;
76848;SDS011;65814;51.134;16.980;2023-01-30T12:11:25;6.60;;;4.40;;
76848;SDS011;65814;51.134;16.980;2023-01-30T12:14:17;6.10;;;4.40;;
76848;SDS011;65814;51.134;16.980;2023-01-30T12:17:08;6.30;;;4.40;;
76848;SDS011;65814;51.134;16.980;2023-01-30T12:19:47;6.50;;;4.70;;
76848;SDS011;65814;51.134;16.980;2023-01-30T12:22:25;6.90;;;4.90;;
76848;SDS011;65814;51.134;16.980;2023-01-30T12:25:00;8.60;;;4.70;;
76848;SDS011;65814;51.134;16.980;2023-01-30T12:27:45;6.50;;;3.70;;
76848;SDS011;65814;51.134;16.980;2023-01-30T12:30:24;6.40;;;4.00;;
76848;SDS011;65814;51.134;16.980;2023-01-30T12:32:57;6.40;;;4.10;;
76848;SDS011;65814;51.134;16.980;2023-01-30T12:35:31;7.60;;;3.80;;
76848;SDS011;65814;51.134;16.980;2023-01-30T12:46:06;6.90;;;4.00;;
76848;SDS011;65814;51.134;16.980;2023-01-30T12:48:51;5.40;;;3.40;;
76848;SDS011;65814;51.134;16.980;2023-01-30T12:51:42;7.00;;;4.00;;
76848;SDS011;65814;51.134;16.980;2023-01-30T13:02:44;6.80;;;3.90;;
76848;SDS011;65814;51.134;16.980;2023-01-30T13:08:05;6.00;;;3.90;;
76848;SDS011;65814;51.134;16.980;2023-01-30T13:10:41;7.90;;;3.80;;
76848;SDS011;65814;51.134;16.980;2023-01-30T13:13:36;9.00;;;5.00;;
76848;SDS011;65814;51.134;16.980;2023-01-30T13:16:19;7.20;;;3.50;;
76848;SDS011;65814;51.134;16.980;2023-01-30T13:19:19;6.70;;;4.00;;
76848;SDS011;65814;51.134;16.980;2023-01-30T13:25:03;8.00;;;3.70;;
76848;SDS011;65814;51.134;16.980;2023-01-30T13:27:39;6.10;;;3.00;;
76848;SDS011;65814;51.134;16.980;2023-01-30T13:30:14;6.50;;;4.50;;
76848;SDS011;65814;51.134;16.980;2023-01-30T13:32:51;6.60;;;3.70;;
76848;SDS011;65814;51.134;16.980;2023-01-30T13:35:28;4.90;;;3.20;;
76848;SDS011;65814;51.134;16.980;2023-01-30T13:38:24;6.50;;;3.50;;
76848;SDS011;65814;51.134;16.980;2023-01-30T13:40:54;7.40;;;4.10;;
76848;SDS011;65814;51.134;16.980;2023-01-30T13:43:32;7.00;;;2.90;;
76848;SDS011;65814;51.134;16.980;2023-01-30T13:46:06;4.70;;;3.10;;
76848;SDS011;65814;51.134;16.980;2023-01-30T13:48:44;7.30;;;3.10;;
76848;SDS011;65814;51.134;16.980;2023-01-30T13:51:23;5.80;;;2.80;;
76848;SDS011;65814;51.134;16.980;2023-01-30T13:54:11;6.70;;;3.40;;
76848;SDS011;65814;51.134;16.980;2023-01-30T14:09:41;9.20;;;3.40;;
76848;SDS011;65814;51.134;16.980;2023-01-30T14:12:24;5.80;;;3.60;;
76848;SDS011;65814;51.134;16.980;2023-01-30T14:20:31;7.80;;;4.00;;
76848;SDS011;65814;51.134;16.980;2023-01-30T14:23:21;7.20;;;3.50;;
76848;SDS011;65814;51.134;16.980;2023-01-30T14:25:53;7.80;;;3.40;;
76848;SDS011;65814;51.134;16.980;2023-01-30T14:30:53;5.50;;;3.10;;
76848;SDS011;65814;51.134;16.980;2023-01-30T14:38:28;7.90;;;3.30;;
76848;SDS011;65814;51.134;16.980;2023-01-30T14:46:37;4.80;;;3.00;;
76848;SDS011;65814;51.134;16.980;2023-01-30T14:49:30;4.00;;;2.70;;
76848;SDS011;65814;51.134;16.980;2023-01-30T14:51:51;5.00;;;2.50;;
76848;SDS011;65814;51.134;16.980;2023-01-30T14:54:25;5.80;;;2.70;;
76848;SDS011;65814;51.134;16.980;2023-01-30T14:57:15;6.30;;;3.20;;
76848;SDS011;65814;51.134;16.980;2023-01-30T15:02:38;6.00;;;2.60;;
76848;SDS011;65814;51.134;16.980;2023-01-30T15:05:14;8.90;;;3.40;;
76848;SDS011;65814;51.134;16.980;2023-01-30T15:07:46;6.80;;;3.10;;
76848;SDS011;65814;51.134;16.980;2023-01-30T15:10:33;5.80;;;2.60;;
76848;SDS011;65814;51.134;16.980;2023-01-30T15:25:11;7.40;;;2.50;;
76848;SDS011;65814;51.134;16.980;2023-01-30T15:28:31;7.10;;;2.50;;
76848;SDS011;65814;51.134;16.980;2023-01-30T15:31:07;7.10;;;2.60;;
76848;SDS011;65814;51.134;16.980;2023-01-30T15:33:49;6.50;;;3.00;;
76848;SDS011;65814;51.134;16.980;2023-01-30T15:36:29;6.20;;;2.60;;
76848;SDS011;65814;51.134;16.980;2023-01-30T15:39:32;6.00;;;3.00;;
76848;SDS011;65814;51.134;16.980;2023-01-30T15:41:57;5.40;;;3.30;;
76848;SDS011;65814;51.134;16.980;2023-01-30T15:44:55;7.30;;;4.50;;
76848;SDS011;65814;51.134;16.980;2023-01-30T15:50:06;4.00;;;2.60;;
76848;SDS011;65814;51.134;16.980;2023-01-30T15:55:25;4.80;;;3.00;;
76848;SDS011;65814;51.134;16.980;2023-01-30T15:58:02;6.20;;;2.10;;
76848;SDS011;65814;51.134;16.980;2023-01-30T16:00:32;3.10;;;2.30;;
76848;SDS011;65814;51.134;16.980;2023-01-30T16:03:03;5.50;;;2.90;;
76848;SDS011;65814;51.134;16.980;2023-01-30T16:05:32;5.20;;;2.30;;
76848;SDS011;65814;51.134;16.980;2023-01-30T16:08:08;3.90;;;2.50;;
76848;SDS011;65814;51.134;16.980;2023-01-30T16:10:42;4.60;;;2.20;;
76848;SDS011;65814;51.134;16.980;2023-01-30T16:13:12;5.60;;;2.20;;
76848;SDS011;65814;51.134;16.980;2023-01-30T16:18:47;5.20;;;2.40;;
76848;SDS011;65814;51.134;16.980;2023-01-30T16:21:20;4.20;;;2.50;;
76848;SDS011;65814;51.134;16.980;2023-01-30T16:23:54;4.90;;;2.80;;
76848;SDS011;65814;51.134;16.980;2023-01-30T16:26:25;7.20;;;3.20;;
76848;SDS011;65814;51.134;16.980;2023-01-30T16:29:27;9.00;;;3.20;;
76848;SDS011;65814;51.134;16.980;2023-01-30T16:31:50;6.40;;;3.80;;
76848;SDS011;65814;51.134;16.980;2023-01-30T16:39:43;4.60;;;2.50;;
76848;SDS011;65814;51.134;16.980;2023-01-30T16:42:22;4.50;;;2.30;;
76848;SDS011;65814;51.134;16.980;2023-01-30T16:47:39;5.00;;;2.70;;
76848;SDS011;65814;51.134;16.980;2023-01-30T16:50:15;3.80;;;2.50;;
76848;SDS011;65814;51.134;16.980;2023-01-30T16:52:49;4.40;;;2.50;;
76848;SDS011;65814;51.134;16.980;2023-01-30T16:55:22;7.20;;;2.30;;
76848;SDS011;65814;51.134;16.980;2023-01-30T16:57:55;4.60;;;2.40;;
76848;SDS011;65814;51.134;16.980;2023-01-30T17:03:00;5.90;;;2.70;;
76848;SDS011;65814;51.134;16.980;2023-01-30T17:05:36;5.20;;;2.30;;
76848;SDS011;65814;51.134;16.980;2023-01-30T17:08:36;9.80;;;3.70;;
76848;SDS011;65814;51.134;16.980;2023-01-30T17:11:29;5.20;;;2.20;;
76848;SDS011;65814;51.134;16.980;2023-01-30T17:14:08;6.60;;;2.90;;
76848;SDS011;65814;51.134;16.980;2023-01-30T17:16:39;6.50;;;2.90;;
76848;SDS011;65814;51.134;16.980;2023-01-30T17:19:09;6.90;;;3.00;;
76848;SDS011;65814;51.134;16.980;2023-01-30T17:21:58;5.10;;;2.30;;
76848;SDS011;65814;51.134;16.980;2023-01-30T17:24:25;8.30;;;2.50;;